aviador You're here:

VEGY Decoded Metar

GAYA in INDIA
Report Time2017-11-24 18:00:00
UTC Time2017-11-24 18:38:53
Flight Rules ifr IFR
Wind140° at 03 kt
W.Decomp.*RWY 10: 2.3 kt HW 1.9 kt RCW
W.Rank140° ranks 15
Current wind is below 140° avg. (4.2)
Visibility2000 m
Phenomena:Mist
Clouds:N/A
Expected CloudBase > 1,200 ft AGL from Temp-Dew spread
CeilingNone
Temp12°C (ISA -2)
Dew Point09°C (82% RH)
AAT10.7°C
QNH1015 hPa
Density Alt203 ft
Elevation381 ft
Report Wrong Elevation
Raw Report
METAR VEGY 241800Z 14003KT 2000 BR NSC 12/09 Q1015 =

Extra information for VEGY:More info

Airport Information Weather charts Add Link Nearby Venues Social comments